Terminal Aerodrome Forecast
Issued by NWS Houston/Galveston TX

Current Version | Previous Version | Text Only | Print | Product List | Glossary Off
Versions: 1 2 3 4 5 6 7 8 9 10 11 12 13 14 15 16 17 18 19 20 21 22 23 24 25 26 27 28 29 30 31 32 33 34 35 36 37 38 39 40 41 42 43 44 45 46 47 48 49 50

821
FTUS44 KHGX 220840 AAA
TAFHOU
TAF AMD
KHOU 220840Z 2209/2306 34006KT 6SM -RA BR OVC005
     FM221000 01006KT 3SM BR VCSH OVC004
     FM221800 18012KT 5SM BR VCSH OVC007
     FM230200 15006KT 4SM BR VCSH OVC004=

USA.gov is the U.S. government's official web portal to all federal, state and local government web resources and services.